sensor_id;sensor_type;location;lat;lon;timestamp;P1;durP1;ratioP1;P2;durP2;ratioP2
63203;SDS011;49297;43.210;27.914;2023-08-20T00:00:28;7.00;;;5.93;;
63203;SDS011;49297;43.210;27.914;2023-08-20T00:03:04;7.00;;;5.00;;
63203;SDS011;49297;43.210;27.914;2023-08-20T00:05:37;6.90;;;5.85;;
63203;SDS011;49297;43.210;27.914;2023-08-20T00:08:04;7.53;;;6.78;;
63203;SDS011;49297;43.210;27.914;2023-08-20T00:10:30;7.27;;;6.57;;
63203;SDS011;49297;43.210;27.914;2023-08-20T00:12:57;6.18;;;5.65;;
63203;SDS011;49297;43.210;27.914;2023-08-20T00:15:23;7.43;;;6.57;;
63203;SDS011;49297;43.210;27.914;2023-08-20T00:17:52;7.57;;;6.88;;
63203;SDS011;49297;43.210;27.914;2023-08-20T00:20:19;5.70;;;5.20;;
63203;SDS011;49297;43.210;27.914;2023-08-20T00:22:45;6.68;;;6.07;;
63203;SDS011;49297;43.210;27.914;2023-08-20T00:25:12;8.33;;;6.63;;
63203;SDS011;49297;43.210;27.914;2023-08-20T00:27:39;12.38;;;6.43;;
63203;SDS011;49297;43.210;27.914;2023-08-20T00:30:05;6.40;;;5.90;;
63203;SDS011;49297;43.210;27.914;2023-08-20T00:32:31;7.22;;;5.88;;
63203;SDS011;49297;43.210;27.914;2023-08-20T00:34:57;6.47;;;5.97;;
63203;SDS011;49297;43.210;27.914;2023-08-20T00:37:23;6.47;;;5.88;;
63203;SDS011;49297;43.210;27.914;2023-08-20T00:39:49;6.18;;;5.55;;
63203;SDS011;49297;43.210;27.914;2023-08-20T00:42:14;10.77;;;6.22;;
63203;SDS011;49297;43.210;27.914;2023-08-20T00:44:40;8.88;;;6.07;;
63203;SDS011;49297;43.210;27.914;2023-08-20T00:47:09;7.40;;;6.05;;
63203;SDS011;49297;43.210;27.914;2023-08-20T00:49:36;7.35;;;6.75;;
63203;SDS011;49297;43.210;27.914;2023-08-20T00:52:02;6.47;;;5.95;;
63203;SDS011;49297;43.210;27.914;2023-08-20T00:54:29;10.77;;;6.60;;
63203;SDS011;49297;43.210;27.914;2023-08-20T00:56:57;6.55;;;5.95;;
63203;SDS011;49297;43.210;27.914;2023-08-20T00:59:24;7.13;;;6.30;;
63203;SDS011;49297;43.210;27.914;2023-08-20T01:01:50;7.47;;;6.37;;
63203;SDS011;49297;43.210;27.914;2023-08-20T01:04:16;7.05;;;6.35;;
63203;SDS011;49297;43.210;27.914;2023-08-20T01:11:50;7.18;;;5.63;;
63203;SDS011;49297;43.210;27.914;2023-08-20T01:14:20;7.47;;;6.57;;
63203;SDS011;49297;43.210;27.914;2023-08-20T01:16:46;5.78;;;5.28;;
63203;SDS011;49297;43.210;27.914;2023-08-20T01:19:16;6.75;;;6.05;;
63203;SDS011;49297;43.210;27.914;2023-08-20T01:30:21;7.75;;;6.57;;
63203;SDS011;49297;43.210;27.914;2023-08-20T01:32:48;6.38;;;5.88;;
63203;SDS011;49297;43.210;27.914;2023-08-20T01:35:16;7.05;;;6.35;;
63203;SDS011;49297;43.210;27.914;2023-08-20T01:37:43;9.40;;;6.68;;
63203;SDS011;49297;43.210;27.914;2023-08-20T01:40:09;7.47;;;6.68;;
63203;SDS011;49297;43.210;27.914;2023-08-20T01:42:39;7.07;;;6.37;;
63203;SDS011;49297;43.210;27.914;2023-08-20T01:45:06;6.45;;;5.82;;
63203;SDS011;49297;43.210;27.914;2023-08-20T01:47:32;6.10;;;5.47;;
63203;SDS011;49297;43.210;27.914;2023-08-20T01:49:59;7.28;;;6.57;;
63203;SDS011;49297;43.210;27.914;2023-08-20T01:52:25;7.18;;;6.50;;
63203;SDS011;49297;43.210;27.914;2023-08-20T01:54:51;6.30;;;5.70;;
63203;SDS011;49297;43.210;27.914;2023-08-20T01:57:18;8.10;;;6.55;;
63203;SDS011;49297;43.210;27.914;2023-08-20T01:59:44;6.43;;;5.43;;
63203;SDS011;49297;43.210;27.914;2023-08-20T02:02:10;6.78;;;6.18;;
63203;SDS011;49297;43.210;27.914;2023-08-20T02:04:36;8.07;;;6.70;;
63203;SDS011;49297;43.210;27.914;2023-08-20T02:07:01;6.43;;;5.40;;
63203;SDS011;49297;43.210;27.914;2023-08-20T02:09:27;10.88;;;6.40;;
63203;SDS011;49297;43.210;27.914;2023-08-20T02:11:53;7.80;;;7.00;;
63203;SDS011;49297;43.210;27.914;2023-08-20T02:14:19;7.55;;;6.20;;
63203;SDS011;49297;43.210;27.914;2023-08-20T02:16:45;8.03;;;7.23;;
63203;SDS011;49297;43.210;27.914;2023-08-20T02:19:12;9.00;;;7.05;;
63203;SDS011;49297;43.210;27.914;2023-08-20T02:21:37;13.18;;;7.03;;
63203;SDS011;49297;43.210;27.914;2023-08-20T02:24:03;9.43;;;8.10;;
63203;SDS011;49297;43.210;27.914;2023-08-20T02:26:29;9.15;;;7.25;;
63203;SDS011;49297;43.210;27.914;2023-08-20T02:28:55;9.63;;;8.40;;
63203;SDS011;49297;43.210;27.914;2023-08-20T02:31:21;9.50;;;8.60;;
63203;SDS011;49297;43.210;27.914;2023-08-20T02:33:47;13.30;;;12.05;;
63203;SDS011;49297;43.210;27.914;2023-08-20T02:36:13;16.27;;;12.80;;
63203;SDS011;49297;43.210;27.914;2023-08-20T02:38:38;13.65;;;11.98;;
63203;SDS011;49297;43.210;27.914;2023-08-20T02:41:04;16.75;;;12.77;;
63203;SDS011;49297;43.210;27.914;2023-08-20T02:43:32;15.13;;;12.82;;
63203;SDS011;49297;43.210;27.914;2023-08-20T02:45:57;14.43;;;12.77;;
63203;SDS011;49297;43.210;27.914;2023-08-20T02:48:23;16.33;;;14.80;;
63203;SDS011;49297;43.210;27.914;2023-08-20T02:50:53;16.50;;;14.68;;
63203;SDS011;49297;43.210;27.914;2023-08-20T02:53:20;16.55;;;14.93;;
63203;SDS011;49297;43.210;27.914;2023-08-20T02:55:46;19.50;;;15.07;;
63203;SDS011;49297;43.210;27.914;2023-08-20T02:58:12;17.40;;;15.70;;
63203;SDS011;49297;43.210;27.914;2023-08-20T03:00:37;17.40;;;15.73;;
63203;SDS011;49297;43.210;27.914;2023-08-20T03:03:03;16.35;;;14.93;;
63203;SDS011;49297;43.210;27.914;2023-08-20T03:05:32;17.45;;;14.68;;
63203;SDS011;49297;43.210;27.914;2023-08-20T03:07:58;18.67;;;16.85;;
63203;SDS011;49297;43.210;27.914;2023-08-20T03:10:24;20.75;;;18.48;;
63203;SDS011;49297;43.210;27.914;2023-08-20T03:12:51;18.13;;;16.35;;
63203;SDS011;49297;43.210;27.914;2023-08-20T03:15:16;20.65;;;18.58;;
63203;SDS011;49297;43.210;27.914;2023-08-20T03:17:42;19.70;;;17.27;;
63203;SDS011;49297;43.210;27.914;2023-08-20T03:20:09;28.30;;;18.45;;
63203;SDS011;49297;43.210;27.914;2023-08-20T03:22:35;22.48;;;19.95;;
63203;SDS011;49297;43.210;27.914;2023-08-20T03:25:02;20.40;;;18.53;;
63203;SDS011;49297;43.210;27.914;2023-08-20T03:27:28;22.03;;;19.83;;
63203;SDS011;49297;43.210;27.914;2023-08-20T03:29:54;21.23;;;19.08;;
63203;SDS011;49297;43.210;27.914;2023-08-20T03:32:20;29.07;;;17.73;;
63203;SDS011;49297;43.210;27.914;2023-08-20T03:34:46;20.13;;;18.23;;
63203;SDS011;49297;43.210;27.914;2023-08-20T03:37:12;28.92;;;19.63;;
63203;SDS011;49297;43.210;27.914;2023-08-20T03:39:37;21.73;;;19.43;;
63203;SDS011;49297;43.210;27.914;2023-08-20T03:42:03;23.40;;;20.27;;
63203;SDS011;49297;43.210;27.914;2023-08-20T03:44:30;22.52;;;20.48;;
63203;SDS011;49297;43.210;27.914;2023-08-20T03:46:56;23.58;;;20.88;;
63203;SDS011;49297;43.210;27.914;2023-08-20T03:49:22;22.10;;;19.60;;
63203;SDS011;49297;43.210;27.914;2023-08-20T03:51:48;24.80;;;22.30;;
63203;SDS011;49297;43.210;27.914;2023-08-20T03:54:13;23.80;;;21.35;;
63203;SDS011;49297;43.210;27.914;2023-08-20T03:56:39;23.63;;;21.03;;
63203;SDS011;49297;43.210;27.914;2023-08-20T03:59:05;22.58;;;20.33;;
63203;SDS011;49297;43.210;27.914;2023-08-20T04:01:31;22.05;;;19.75;;
63203;SDS011;49297;43.210;27.914;2023-08-20T04:03:57;22.00;;;19.67;;
63203;SDS011;49297;43.210;27.914;2023-08-20T04:06:22;22.02;;;19.50;;
63203;SDS011;49297;43.210;27.914;2023-08-20T04:08:48;21.10;;;17.57;;
63203;SDS011;49297;43.210;27.914;2023-08-20T04:11:14;21.35;;;19.40;;
63203;SDS011;49297;43.210;27.914;2023-08-20T04:13:40;22.70;;;19.67;;
63203;SDS011;49297;43.210;27.914;2023-08-20T04:16:08;20.58;;;18.52;;
63203;SDS011;49297;43.210;27.914;2023-08-20T04:18:34;19.13;;;17.25;;
63203;SDS011;49297;43.210;27.914;2023-08-20T04:20:59;23.38;;;19.10;;
63203;SDS011;49297;43.210;27.914;2023-08-20T04:23:25;20.48;;;18.15;;
63203;SDS011;49297;43.210;27.914;2023-08-20T04:25:51;22.08;;;18.83;;
63203;SDS011;49297;43.210;27.914;2023-08-20T04:28:18;21.08;;;18.30;;
63203;SDS011;49297;43.210;27.914;2023-08-20T04:30:43;21.50;;;19.30;;
63203;SDS011;49297;43.210;27.914;2023-08-20T04:33:09;22.75;;;19.70;;
63203;SDS011;49297;43.210;27.914;2023-08-20T04:35:35;21.33;;;19.27;;
63203;SDS011;49297;43.210;27.914;2023-08-20T04:38:01;26.95;;;20.08;;
63203;SDS011;49297;43.210;27.914;2023-08-20T04:40:28;22.52;;;20.45;;
63203;SDS011;49297;43.210;27.914;2023-08-20T04:42:54;21.95;;;19.90;;
63203;SDS011;49297;43.210;27.914;2023-08-20T04:45:19;24.35;;;22.02;;
63203;SDS011;49297;43.210;27.914;2023-08-20T04:47:45;23.58;;;21.30;;
63203;SDS011;49297;43.210;27.914;2023-08-20T04:50:12;20.05;;;18.25;;
63203;SDS011;49297;43.210;27.914;2023-08-20T04:52:39;18.98;;;17.10;;
63203;SDS011;49297;43.210;27.914;2023-08-20T04:55:05;16.95;;;15.32;;
63203;SDS011;49297;43.210;27.914;2023-08-20T04:57:33;13.02;;;11.73;;
63203;SDS011;49297;43.210;27.914;2023-08-20T04:59:59;12.10;;;10.07;;
63203;SDS011;49297;43.210;27.914;2023-08-20T05:02:25;11.33;;;10.20;;
63203;SDS011;49297;43.210;27.914;2023-08-20T05:04:51;10.77;;;8.70;;
63203;SDS011;49297;43.210;27.914;2023-08-20T05:07:17;9.60;;;8.15;;
63203;SDS011;49297;43.210;27.914;2023-08-20T05:09:43;7.90;;;7.10;;
63203;SDS011;49297;43.210;27.914;2023-08-20T05:12:08;8.70;;;7.10;;
63203;SDS011;49297;43.210;27.914;2023-08-20T05:14:34;8.23;;;7.53;;
63203;SDS011;49297;43.210;27.914;2023-08-20T05:17:00;8.32;;;7.53;;
63203;SDS011;49297;43.210;27.914;2023-08-20T05:19:26;9.88;;;7.78;;
63203;SDS011;49297;43.210;27.914;2023-08-20T05:21:52;9.88;;;8.77;;
63203;SDS011;49297;43.210;27.914;2023-08-20T05:24:21;9.93;;;9.03;;
63203;SDS011;49297;43.210;27.914;2023-08-20T05:26:50;8.93;;;8.13;;
63203;SDS011;49297;43.210;27.914;2023-08-20T05:29:42;10.38;;;8.90;;
63203;SDS011;49297;43.210;27.914;2023-08-20T05:32:09;9.35;;;7.47;;
63203;SDS011;49297;43.210;27.914;2023-08-20T05:34:35;7.10;;;6.45;;
63203;SDS011;49297;43.210;27.914;2023-08-20T05:37:01;7.53;;;6.88;;
63203;SDS011;49297;43.210;27.914;2023-08-20T05:39:27;7.67;;;6.40;;
63203;SDS011;49297;43.210;27.914;2023-08-20T05:41:56;8.32;;;6.85;;
63203;SDS011;49297;43.210;27.914;2023-08-20T05:44:22;6.30;;;5.60;;
63203;SDS011;49297;43.210;27.914;2023-08-20T05:46:47;7.70;;;6.10;;
63203;SDS011;49297;43.210;27.914;2023-08-20T05:49:14;6.68;;;6.00;;
63203;SDS011;49297;43.210;27.914;2023-08-20T05:51:43;6.22;;;5.63;;
63203;SDS011;49297;43.210;27.914;2023-08-20T05:54:09;6.65;;;5.85;;
63203;SDS011;49297;43.210;27.914;2023-08-20T05:56:37;6.70;;;6.20;;
63203;SDS011;49297;43.210;27.914;2023-08-20T05:59:03;6.30;;;5.47;;
63203;SDS011;49297;43.210;27.914;2023-08-20T06:01:29;6.20;;;5.57;;
63203;SDS011;49297;43.210;27.914;2023-08-20T06:03:55;7.32;;;5.53;;
63203;SDS011;49297;43.210;27.914;2023-08-20T06:06:21;6.60;;;6.00;;
63203;SDS011;49297;43.210;27.914;2023-08-20T06:08:47;6.90;;;5.70;;
63203;SDS011;49297;43.210;27.914;2023-08-20T06:11:13;8.80;;;5.57;;
63203;SDS011;49297;43.210;27.914;2023-08-20T06:13:39;6.10;;;5.50;;
63203;SDS011;49297;43.210;27.914;2023-08-20T06:16:04;5.28;;;4.82;;
63203;SDS011;49297;43.210;27.914;2023-08-20T06:18:32;7.50;;;5.75;;
63203;SDS011;49297;43.210;27.914;2023-08-20T06:20:58;5.17;;;4.67;;
63203;SDS011;49297;43.210;27.914;2023-08-20T06:23:23;7.05;;;5.35;;
63203;SDS011;49297;43.210;27.914;2023-08-20T06:25:52;5.57;;;4.88;;
63203;SDS011;49297;43.210;27.914;2023-08-20T06:28:19;5.60;;;5.10;;
63203;SDS011;49297;43.210;27.914;2023-08-20T06:30:45;5.63;;;4.57;;
63203;SDS011;49297;43.210;27.914;2023-08-20T06:33:11;7.13;;;5.60;;
63203;SDS011;49297;43.210;27.914;2023-08-20T06:35:37;5.15;;;4.65;;
63203;SDS011;49297;43.210;27.914;2023-08-20T06:38:03;5.97;;;4.82;;
63203;SDS011;49297;43.210;27.914;2023-08-20T06:40:29;6.82;;;4.93;;
63203;SDS011;49297;43.210;27.914;2023-08-20T06:42:56;5.43;;;4.93;;
63203;SDS011;49297;43.210;27.914;2023-08-20T06:45:22;5.37;;;4.87;;
63203;SDS011;49297;43.210;27.914;2023-08-20T06:47:47;5.28;;;4.20;;
63203;SDS011;49297;43.210;27.914;2023-08-20T06:50:13;5.55;;;5.03;;
63203;SDS011;49297;43.210;27.914;2023-08-20T06:52:39;6.57;;;4.40;;
63203;SDS011;49297;43.210;27.914;2023-08-20T06:55:04;5.13;;;4.60;;
63203;SDS011;49297;43.210;27.914;2023-08-20T06:57:30;6.55;;;4.72;;
63203;SDS011;49297;43.210;27.914;2023-08-20T06:59:56;5.22;;;4.72;;
63203;SDS011;49297;43.210;27.914;2023-08-20T07:02:22;5.75;;;4.47;;
63203;SDS011;49297;43.210;27.914;2023-08-20T07:04:48;5.10;;;4.60;;
63203;SDS011;49297;43.210;27.914;2023-08-20T07:07:13;7.23;;;4.17;;
63203;SDS011;49297;43.210;27.914;2023-08-20T07:09:40;6.00;;;5.00;;
63203;SDS011;49297;43.210;27.914;2023-08-20T07:12:06;5.20;;;4.35;;
63203;SDS011;49297;43.210;27.914;2023-08-20T07:14:32;5.90;;;4.60;;
63203;SDS011;49297;43.210;27.914;2023-08-20T07:16:58;7.00;;;4.63;;
63203;SDS011;49297;43.210;27.914;2023-08-20T07:19:25;5.45;;;4.63;;
63203;SDS011;49297;43.210;27.914;2023-08-20T07:21:50;4.63;;;4.23;;
63203;SDS011;49297;43.210;27.914;2023-08-20T07:24:16;4.80;;;3.65;;
63203;SDS011;49297;43.210;27.914;2023-08-20T07:26:42;4.38;;;3.70;;
63203;SDS011;49297;43.210;27.914;2023-08-20T07:29:09;4.47;;;3.37;;
63203;SDS011;49297;43.210;27.914;2023-08-20T07:31:35;4.88;;;4.38;;
63203;SDS011;49297;43.210;27.914;2023-08-20T07:34:01;5.25;;;3.45;;
63203;SDS011;49297;43.210;27.914;2023-08-20T07:36:28;5.32;;;4.38;;
63203;SDS011;49297;43.210;27.914;2023-08-20T07:38:54;4.70;;;4.13;;
63203;SDS011;49297;43.210;27.914;2023-08-20T07:41:20;4.78;;;3.78;;
63203;SDS011;49297;43.210;27.914;2023-08-20T07:43:47;5.22;;;4.15;;
63203;SDS011;49297;43.210;27.914;2023-08-20T07:46:14;7.53;;;3.90;;
63203;SDS011;49297;43.210;27.914;2023-08-20T07:48:41;4.65;;;3.63;;
63203;SDS011;49297;43.210;27.914;2023-08-20T07:51:07;5.45;;;4.65;;
63203;SDS011;49297;43.210;27.914;2023-08-20T07:53:34;5.13;;;4.30;;
63203;SDS011;49297;43.210;27.914;2023-08-20T07:56:00;8.00;;;4.32;;
63203;SDS011;49297;43.210;27.914;2023-08-20T07:58:26;4.50;;;4.00;;
63203;SDS011;49297;43.210;27.914;2023-08-20T08:00:52;5.10;;;4.13;;
63203;SDS011;49297;43.210;27.914;2023-08-20T08:03:17;5.32;;;4.63;;
63203;SDS011;49297;43.210;27.914;2023-08-20T08:05:47;4.93;;;4.47;;
63203;SDS011;49297;43.210;27.914;2023-08-20T08:08:14;8.90;;;4.50;;
63203;SDS011;49297;43.210;27.914;2023-08-20T08:10:41;5.00;;;4.50;;
63203;SDS011;49297;43.210;27.914;2023-08-20T08:13:09;4.70;;;4.13;;
63203;SDS011;49297;43.210;27.914;2023-08-20T08:15:39;7.10;;;5.63;;
63203;SDS011;49297;43.210;27.914;2023-08-20T08:18:05;4.90;;;4.40;;
63203;SDS011;49297;43.210;27.914;2023-08-20T08:20:31;5.55;;;4.75;;
63203;SDS011;49297;43.210;27.914;2023-08-20T08:22:58;5.18;;;4.78;;
63203;SDS011;49297;43.210;27.914;2023-08-20T08:25:24;5.47;;;4.57;;
63203;SDS011;49297;43.210;27.914;2023-08-20T08:27:49;5.63;;;4.90;;
63203;SDS011;49297;43.210;27.914;2023-08-20T08:30:15;5.43;;;4.33;;
63203;SDS011;49297;43.210;27.914;2023-08-20T08:32:41;6.68;;;4.63;;
63203;SDS011;49297;43.210;27.914;2023-08-20T08:35:07;5.43;;;4.75;;
63203;SDS011;49297;43.210;27.914;2023-08-20T08:37:33;5.10;;;4.45;;
63203;SDS011;49297;43.210;27.914;2023-08-20T08:39:58;6.30;;;4.68;;
63203;SDS011;49297;43.210;27.914;2023-08-20T08:42:24;5.53;;;4.25;;
63203;SDS011;49297;43.210;27.914;2023-08-20T08:44:50;5.65;;;5.15;;
63203;SDS011;49297;43.210;27.914;2023-08-20T08:47:21;4.80;;;4.40;;
63203;SDS011;49297;43.210;27.914;2023-08-20T08:49:48;5.38;;;4.88;;
63203;SDS011;49297;43.210;27.914;2023-08-20T08:52:14;6.32;;;4.68;;
63203;SDS011;49297;43.210;27.914;2023-08-20T08:54:41;5.13;;;4.65;;
63203;SDS011;49297;43.210;27.914;2023-08-20T08:57:07;5.65;;;4.28;;
63203;SDS011;49297;43.210;27.914;2023-08-20T08:59:33;5.03;;;4.53;;
63203;SDS011;49297;43.210;27.914;2023-08-20T09:01:59;5.13;;;4.63;;
63203;SDS011;49297;43.210;27.914;2023-08-20T09:04:25;4.53;;;4.17;;
63203;SDS011;49297;43.210;27.914;2023-08-20T09:06:51;9.15;;;4.55;;
63203;SDS011;49297;43.210;27.914;2023-08-20T09:09:18;5.80;;;4.65;;
63203;SDS011;49297;43.210;27.914;2023-08-20T09:11:45;5.25;;;4.53;;
63203;SDS011;49297;43.210;27.914;2023-08-20T09:14:21;4.30;;;3.90;;
63203;SDS011;49297;43.210;27.914;2023-08-20T09:16:58;6.65;;;4.25;;
63203;SDS011;49297;43.210;27.914;2023-08-20T09:19:29;4.82;;;4.32;;
63203;SDS011;49297;43.210;27.914;2023-08-20T09:22:00;5.75;;;4.60;;
63203;SDS011;49297;43.210;27.914;2023-08-20T09:24:26;5.25;;;4.43;;
63203;SDS011;49297;43.210;27.914;2023-08-20T09:26:59;11.80;;;4.28;;
63203;SDS011;49297;43.210;27.914;2023-08-20T09:29:25;5.77;;;4.77;;
63203;SDS011;49297;43.210;27.914;2023-08-20T09:31:50;5.80;;;4.88;;
63203;SDS011;49297;43.210;27.914;2023-08-20T09:34:35;8.88;;;5.32;;
63203;SDS011;49297;43.210;27.914;2023-08-20T09:37:02;5.15;;;4.65;;
63203;SDS011;49297;43.210;27.914;2023-08-20T09:39:28;5.35;;;4.88;;
63203;SDS011;49297;43.210;27.914;2023-08-20T09:41:53;6.50;;;4.70;;
63203;SDS011;49297;43.210;27.914;2023-08-20T09:44:22;5.30;;;4.80;;
63203;SDS011;49297;43.210;27.914;2023-08-20T09:46:49;4.18;;;3.50;;
63203;SDS011;49297;43.210;27.914;2023-08-20T09:49:15;16.75;;;6.15;;
63203;SDS011;49297;43.210;27.914;2023-08-20T09:51:45;4.72;;;3.90;;
63203;SDS011;49297;43.210;27.914;2023-08-20T09:54:23;3.40;;;3.10;;
63203;SDS011;49297;43.210;27.914;2023-08-20T09:57:13;3.67;;;3.00;;
63203;SDS011;49297;43.210;27.914;2023-08-20T09:59:48;4.35;;;3.78;;
63203;SDS011;49297;43.210;27.914;2023-08-20T10:02:15;4.13;;;3.72;;
63203;SDS011;49297;43.210;27.914;2023-08-20T10:04:42;7.22;;;3.83;;
63203;SDS011;49297;43.210;27.914;2023-08-20T10:07:11;5.70;;;4.10;;
63203;SDS011;49297;43.210;27.914;2023-08-20T10:09:41;7.37;;;4.47;;
63203;SDS011;49297;43.210;27.914;2023-08-20T10:12:11;4.28;;;3.50;;
63203;SDS011;49297;43.210;27.914;2023-08-20T10:14:38;6.25;;;4.07;;
63203;SDS011;49297;43.210;27.914;2023-08-20T10:17:08;4.90;;;3.50;;
63203;SDS011;49297;43.210;27.914;2023-08-20T10:19:37;5.82;;;3.70;;
63203;SDS011;49297;43.210;27.914;2023-08-20T10:22:04;4.57;;;3.92;;
63203;SDS011;49297;43.210;27.914;2023-08-20T10:27:34;8.52;;;4.22;;
63203;SDS011;49297;43.210;27.914;2023-08-20T10:30:02;4.22;;;3.78;;
63203;SDS011;49297;43.210;27.914;2023-08-20T10:32:49;4.88;;;3.60;;
63203;SDS011;49297;43.210;27.914;2023-08-20T10:40:53;4.00;;;3.03;;
63203;SDS011;49297;43.210;27.914;2023-08-20T10:43:31;4.65;;;3.13;;
63203;SDS011;49297;43.210;27.914;2023-08-20T10:46:18;3.92;;;3.35;;
63203;SDS011;49297;43.210;27.914;2023-08-20T10:48:54;3.50;;;2.47;;
63203;SDS011;49297;43.210;27.914;2023-08-20T10:51:27;4.05;;;3.30;;
63203;SDS011;49297;43.210;27.914;2023-08-20T11:01:56;2.65;;;2.42;;
63203;SDS011;49297;43.210;27.914;2023-08-20T11:04:24;3.97;;;2.63;;
63203;SDS011;49297;43.210;27.914;2023-08-20T11:06:54;8.02;;;2.60;;
63203;SDS011;49297;43.210;27.914;2023-08-20T11:09:21;3.40;;;2.90;;
63203;SDS011;49297;43.210;27.914;2023-08-20T11:11:48;3.55;;;2.90;;
63203;SDS011;49297;43.210;27.914;2023-08-20T11:14:14;3.75;;;2.92;;
63203;SDS011;49297;43.210;27.914;2023-08-20T11:16:41;3.53;;;3.05;;
63203;SDS011;49297;43.210;27.914;2023-08-20T11:19:09;3.28;;;2.95;;
63203;SDS011;49297;43.210;27.914;2023-08-20T11:21:38;4.90;;;2.80;;
63203;SDS011;49297;43.210;27.914;2023-08-20T11:24:06;3.55;;;2.90;;
63203;SDS011;49297;43.210;27.914;2023-08-20T11:26:33;3.75;;;3.03;;
63203;SDS011;49297;43.210;27.914;2023-08-20T11:29:06;3.30;;;3.00;;
63203;SDS011;49297;43.210;27.914;2023-08-20T11:31:35;4.85;;;3.30;;
63203;SDS011;49297;43.210;27.914;2023-08-20T11:34:02;5.13;;;3.08;;
63203;SDS011;49297;43.210;27.914;2023-08-20T11:36:28;3.03;;;2.72;;
63203;SDS011;49297;43.210;27.914;2023-08-20T11:38:54;5.93;;;3.55;;
63203;SDS011;49297;43.210;27.914;2023-08-20T11:41:21;3.20;;;2.65;;
63203;SDS011;49297;43.210;27.914;2023-08-20T11:43:48;3.20;;;2.50;;
63203;SDS011;49297;43.210;27.914;2023-08-20T11:46:14;4.78;;;2.67;;
63203;SDS011;49297;43.210;27.914;2023-08-20T11:51:47;3.67;;;2.78;;
63203;SDS011;49297;43.210;27.914;2023-08-20T11:54:15;3.58;;;2.63;;
63203;SDS011;49297;43.210;27.914;2023-08-20T11:56:46;2.35;;;2.10;;
63203;SDS011;49297;43.210;27.914;2023-08-20T11:59:14;4.03;;;2.67;;
63203;SDS011;49297;43.210;27.914;2023-08-20T12:01:41;2.70;;;2.50;;
63203;SDS011;49297;43.210;27.914;2023-08-20T12:04:08;3.50;;;2.50;;
63203;SDS011;49297;43.210;27.914;2023-08-20T12:06:35;3.38;;;2.33;;
63203;SDS011;49297;43.210;27.914;2023-08-20T12:09:22;3.60;;;2.45;;
63203;SDS011;49297;43.210;27.914;2023-08-20T12:11:49;3.47;;;2.50;;
63203;SDS011;49297;43.210;27.914;2023-08-20T12:14:16;4.85;;;2.78;;
63203;SDS011;49297;43.210;27.914;2023-08-20T12:16:43;3.40;;;2.40;;
63203;SDS011;49297;43.210;27.914;2023-08-20T12:19:08;2.40;;;2.20;;
63203;SDS011;49297;43.210;27.914;2023-08-20T12:21:34;3.93;;;3.13;;
63203;SDS011;49297;43.210;27.914;2023-08-20T12:24:00;11.88;;;3.20;;
63203;SDS011;49297;43.210;27.914;2023-08-20T12:26:26;2.20;;;2.00;;
63203;SDS011;49297;43.210;27.914;2023-08-20T12:28:52;2.60;;;2.33;;
63203;SDS011;49297;43.210;27.914;2023-08-20T12:31:17;2.77;;;2.57;;
63203;SDS011;49297;43.210;27.914;2023-08-20T12:33:43;3.77;;;2.67;;
63203;SDS011;49297;43.210;27.914;2023-08-20T12:36:09;2.73;;;2.53;;
63203;SDS011;49297;43.210;27.914;2023-08-20T12:38:34;4.45;;;2.58;;
63203;SDS011;49297;43.210;27.914;2023-08-20T12:41:01;3.77;;;2.70;;
63203;SDS011;49297;43.210;27.914;2023-08-20T12:43:29;2.47;;;2.28;;
63203;SDS011;49297;43.210;27.914;2023-08-20T12:45:54;4.20;;;2.80;;
63203;SDS011;49297;43.210;27.914;2023-08-20T12:48:20;4.82;;;2.95;;
63203;SDS011;49297;43.210;27.914;2023-08-20T12:50:46;3.10;;;2.70;;
63203;SDS011;49297;43.210;27.914;2023-08-20T12:53:11;2.85;;;2.65;;
63203;SDS011;49297;43.210;27.914;2023-08-20T12:55:38;6.20;;;3.67;;
63203;SDS011;49297;43.210;27.914;2023-08-20T12:58:03;2.70;;;2.30;;
63203;SDS011;49297;43.210;27.914;2023-08-20T13:00:29;3.47;;;2.60;;
63203;SDS011;49297;43.210;27.914;2023-08-20T13:02:55;2.67;;;2.47;;
63203;SDS011;49297;43.210;27.914;2023-08-20T13:05:22;2.73;;;2.47;;
63203;SDS011;49297;43.210;27.914;2023-08-20T13:07:49;4.38;;;3.75;;
63203;SDS011;49297;43.210;27.914;2023-08-20T13:10:15;3.08;;;2.78;;
63203;SDS011;49297;43.210;27.914;2023-08-20T13:12:41;3.85;;;3.55;;
63203;SDS011;49297;43.210;27.914;2023-08-20T13:15:14;7.40;;;3.33;;
63203;SDS011;49297;43.210;27.914;2023-08-20T13:17:42;3.08;;;2.70;;
63203;SDS011;49297;43.210;27.914;2023-08-20T13:20:08;3.90;;;3.50;;
63203;SDS011;49297;43.210;27.914;2023-08-20T13:22:35;2.70;;;2.50;;
63203;SDS011;49297;43.210;27.914;2023-08-20T13:25:01;4.07;;;3.67;;
63203;SDS011;49297;43.210;27.914;2023-08-20T13:27:26;5.00;;;3.25;;
63203;SDS011;49297;43.210;27.914;2023-08-20T13:29:52;4.18;;;3.13;;
63203;SDS011;49297;43.210;27.914;2023-08-20T13:32:18;4.35;;;3.47;;
63203;SDS011;49297;43.210;27.914;2023-08-20T13:34:44;5.33;;;3.50;;
63203;SDS011;49297;43.210;27.914;2023-08-20T13:37:09;4.95;;;3.72;;
63203;SDS011;49297;43.210;27.914;2023-08-20T13:39:35;4.15;;;3.08;;
63203;SDS011;49297;43.210;27.914;2023-08-20T13:42:02;6.18;;;3.80;;
63203;SDS011;49297;43.210;27.914;2023-08-20T13:44:28;4.67;;;3.50;;
63203;SDS011;49297;43.210;27.914;2023-08-20T13:46:53;3.87;;;3.00;;
63203;SDS011;49297;43.210;27.914;2023-08-20T13:49:20;4.18;;;3.78;;
63203;SDS011;49297;43.210;27.914;2023-08-20T13:51:45;4.03;;;3.10;;
63203;SDS011;49297;43.210;27.914;2023-08-20T13:54:11;5.70;;;3.65;;
63203;SDS011;49297;43.210;27.914;2023-08-20T13:56:37;7.57;;;4.03;;
63203;SDS011;49297;43.210;27.914;2023-08-20T13:59:03;3.63;;;3.30;;
63203;SDS011;49297;43.210;27.914;2023-08-20T14:01:29;5.27;;;3.40;;
63203;SDS011;49297;43.210;27.914;2023-08-20T14:03:54;3.85;;;3.55;;
63203;SDS011;49297;43.210;27.914;2023-08-20T14:06:20;6.05;;;3.83;;
63203;SDS011;49297;43.210;27.914;2023-08-20T14:08:46;5.70;;;3.55;;
63203;SDS011;49297;43.210;27.914;2023-08-20T14:11:11;8.53;;;3.40;;
63203;SDS011;49297;43.210;27.914;2023-08-20T14:13:37;10.50;;;3.90;;
63203;SDS011;49297;43.210;27.914;2023-08-20T14:16:03;3.70;;;3.40;;
63203;SDS011;49297;43.210;27.914;2023-08-20T14:18:29;6.45;;;4.10;;
63203;SDS011;49297;43.210;27.914;2023-08-20T14:20:54;7.10;;;4.27;;
63203;SDS011;49297;43.210;27.914;2023-08-20T14:23:20;4.28;;;3.83;;
63203;SDS011;49297;43.210;27.914;2023-08-20T14:25:46;5.18;;;3.63;;
63203;SDS011;49297;43.210;27.914;2023-08-20T14:28:12;5.13;;;3.83;;
63203;SDS011;49297;43.210;27.914;2023-08-20T14:30:38;4.90;;;3.87;;
63203;SDS011;49297;43.210;27.914;2023-08-20T14:33:06;4.13;;;3.40;;
63203;SDS011;49297;43.210;27.914;2023-08-20T14:35:32;6.97;;;4.53;;
63203;SDS011;49297;43.210;27.914;2023-08-20T14:37:58;7.90;;;4.57;;
63203;SDS011;49297;43.210;27.914;2023-08-20T14:40:24;5.47;;;3.90;;
63203;SDS011;49297;43.210;27.914;2023-08-20T14:42:50;4.95;;;4.03;;
63203;SDS011;49297;43.210;27.914;2023-08-20T14:45:16;8.85;;;3.70;;
63203;SDS011;49297;43.210;27.914;2023-08-20T14:47:41;4.45;;;3.47;;
63203;SDS011;49297;43.210;27.914;2023-08-20T14:50:07;3.78;;;3.38;;
63203;SDS011;49297;43.210;27.914;2023-08-20T14:52:34;4.55;;;3.67;;
63203;SDS011;49297;43.210;27.914;2023-08-20T14:55:00;4.82;;;4.05;;
63203;SDS011;49297;43.210;27.914;2023-08-20T14:57:26;4.70;;;4.05;;
63203;SDS011;49297;43.210;27.914;2023-08-20T14:59:52;6.23;;;3.93;;